createdAt,value
2023-11-13T00:00:05.873Z,10.10
2023-11-13T00:02:35.127Z,10.10
2023-11-13T00:05:02.316Z,10.10
2023-11-13T00:07:29.567Z,10.80
2023-11-13T00:09:56.799Z,10.90
2023-11-13T00:12:23.953Z,10.30
2023-11-13T00:14:51.298Z,8.60
2023-11-13T00:17:18.986Z,10.40
2023-11-13T00:19:46.261Z,10.40
2023-11-13T00:22:13.423Z,10.40
2023-11-13T00:24:40.536Z,13.50
2023-11-13T00:27:07.750Z,10.80
2023-11-13T00:29:34.974Z,10.50
2023-11-13T00:32:02.286Z,10.50
2023-11-13T00:34:29.421Z,11.80
2023-11-13T00:36:56.915Z,12.60
2023-11-13T00:39:24.235Z,11.20
2023-11-13T00:41:51.471Z,9.10
2023-11-13T00:44:18.658Z,10.70
2023-11-13T00:46:45.950Z,10.70
2023-11-13T00:49:13.169Z,11.00
2023-11-13T00:51:40.316Z,10.70
2023-11-13T00:54:07.594Z,11.30
2023-11-13T00:56:35.193Z,10.80
2023-11-13T00:59:02.282Z,10.80
2023-11-13T01:01:29.529Z,10.80
2023-11-13T01:03:57.006Z,10.90
2023-11-13T01:06:24.384Z,10.80
2023-11-13T01:08:51.631Z,10.80
2023-11-13T01:11:18.808Z,10.80
2023-11-13T01:13:46.480Z,10.80
2023-11-13T01:16:13.805Z,10.80
2023-11-13T01:18:41.261Z,10.80
2023-11-13T01:21:09.080Z,10.80
2023-11-13T01:23:36.364Z,10.90
2023-11-13T01:26:05.434Z,12.10
2023-11-13T01:28:33.439Z,10.80
2023-11-13T01:31:00.754Z,10.80
2023-11-13T01:33:28.015Z,11.20
2023-11-13T01:35:55.479Z,10.80
2023-11-13T01:38:22.618Z,13.90
2023-11-13T01:40:52.832Z,10.80
2023-11-13T01:43:23.529Z,12.90
2023-11-13T01:45:56.944Z,10.80
2023-11-13T01:48:24.739Z,10.80
2023-11-13T01:50:52.540Z,10.80
2023-11-13T01:53:26.294Z,11.60
2023-11-13T01:55:53.922Z,10.80
2023-11-13T01:58:21.171Z,10.70
2023-11-13T02:00:48.590Z,11.80
2023-11-13T02:03:18.551Z,10.70
2023-11-13T02:05:46.531Z,13.60
2023-11-13T02:08:14.441Z,11.40
2023-11-13T02:10:41.723Z,10.60
2023-11-13T02:13:09.219Z,10.60
2023-11-13T02:15:38.534Z,10.60
2023-11-13T02:18:06.497Z,10.70
2023-11-13T02:20:33.998Z,10.90
2023-11-13T02:23:01.516Z,10.60
2023-11-13T02:25:28.652Z,10.60
2023-11-13T02:27:57.008Z,10.50
2023-11-13T02:30:24.710Z,13.00
2023-11-13T02:32:52.017Z,10.50
2023-11-13T02:35:19.731Z,10.50
2023-11-13T02:37:47.179Z,11.40
2023-11-13T02:40:14.581Z,12.50
2023-11-13T02:42:42.670Z,11.50
2023-11-13T02:45:10.538Z,10.50
2023-11-13T02:47:38.108Z,10.40
2023-11-13T02:50:06.452Z,10.70
2023-11-13T02:52:33.606Z,10.30
2023-11-13T02:55:01.795Z,13.20
2023-11-13T02:57:29.242Z,10.30
2023-11-13T02:59:56.794Z,10.20
2023-11-13T03:02:24.402Z,13.60
2023-11-13T03:04:51.625Z,10.20
2023-11-13T03:07:18.889Z,10.20
2023-11-13T03:09:46.104Z,12.80
2023-11-13T03:12:13.264Z,11.70
2023-11-13T03:14:40.371Z,10.20
2023-11-13T03:17:09.404Z,10.20
2023-11-13T03:19:36.890Z,11.60
2023-11-13T03:22:04.067Z,10.30
2023-11-13T03:24:31.383Z,10.10
2023-11-13T03:26:59.252Z,10.20
2023-11-13T03:29:26.471Z,10.50
2023-11-13T03:31:54.186Z,10.20
2023-11-13T03:34:21.612Z,10.20
2023-11-13T03:36:48.786Z,10.70
2023-11-13T03:39:16.504Z,12.60
2023-11-13T03:41:44.278Z,10.70
2023-11-13T03:44:11.851Z,10.20
2023-11-13T03:46:39.081Z,10.20
2023-11-13T03:49:06.316Z,10.20
2023-11-13T03:51:33.452Z,10.10
2023-11-13T03:54:00.606Z,13.70
2023-11-13T03:56:27.754Z,12.30
2023-11-13T03:58:54.949Z,10.20
2023-11-13T04:01:22.577Z,11.70
2023-11-13T04:03:50.031Z,10.20
2023-11-13T04:06:17.941Z,10.20
2023-11-13T04:08:45.158Z,11.10
2023-11-13T04:11:13.014Z,10.20
2023-11-13T04:13:40.375Z,10.10
2023-11-13T04:16:10.422Z,10.20
2023-11-13T04:18:38.288Z,12.80
2023-11-13T04:21:05.832Z,10.20
2023-11-13T04:23:33.166Z,10.20
2023-11-13T04:26:01.413Z,10.20
2023-11-13T04:28:32.405Z,10.20
2023-11-13T04:30:59.727Z,10.10
2023-11-13T04:33:27.520Z,10.20
2023-11-13T04:35:55.948Z,10.20
2023-11-13T04:38:23.863Z,12.70
2023-11-13T04:40:51.069Z,13.30
2023-11-13T04:43:18.462Z,11.60
2023-11-13T04:45:45.722Z,11.20
2023-11-13T04:48:13.453Z,12.80
2023-11-13T04:50:40.708Z,10.40
2023-11-13T04:53:08.299Z,10.20
2023-11-13T04:55:35.868Z,10.10
2023-11-13T04:58:03.623Z,10.80
2023-11-13T05:00:31.131Z,10.70
2023-11-13T05:02:58.362Z,10.10
2023-11-13T05:05:26.875Z,11.40
2023-11-13T05:07:54.334Z,10.70
2023-11-13T05:10:21.733Z,12.80
2023-11-13T05:12:49.080Z,10.10
2023-11-13T05:15:16.445Z,11.00
2023-11-13T05:17:44.075Z,10.20
2023-11-13T05:20:11.653Z,10.10
2023-11-13T05:22:38.747Z,10.10
2023-11-13T05:25:06.075Z,10.20
2023-11-13T05:27:34.131Z,12.20
2023-11-13T05:30:05.155Z,10.20
2023-11-13T05:32:33.209Z,10.20
2023-11-13T05:35:00.362Z,10.20
2023-11-13T05:37:34.972Z,10.20
2023-11-13T05:40:07.751Z,10.20
2023-11-13T05:42:46.452Z,10.20
2023-11-13T05:45:23.762Z,10.20
2023-11-13T05:47:53.113Z,10.20
2023-11-13T05:50:20.955Z,10.20
2023-11-13T05:52:48.941Z,12.70
2023-11-13T05:55:16.361Z,10.10
2023-11-13T05:57:44.673Z,10.10
2023-11-13T06:00:12.890Z,10.10
2023-11-13T06:02:40.195Z,10.20
2023-11-13T06:05:07.706Z,10.20
2023-11-13T06:07:35.058Z,10.20
2023-11-13T06:10:02.422Z,10.10
2023-11-13T06:12:33.966Z,10.10
2023-11-13T06:15:02.573Z,10.10
2023-11-13T06:17:29.711Z,10.10
2023-11-13T06:19:57.263Z,12.40
2023-11-13T06:22:24.620Z,10.10
2023-11-13T06:24:52.034Z,10.90
2023-11-13T06:27:19.616Z,12.40
2023-11-13T06:29:52.337Z,10.20
2023-11-13T06:32:20.085Z,10.20
2023-11-13T06:34:47.996Z,11.50
2023-11-13T06:37:17.344Z,10.20
2023-11-13T06:39:46.050Z,10.20
2023-11-13T06:42:13.433Z,10.20
2023-11-13T06:44:46.273Z,10.30
2023-11-13T06:47:13.857Z,10.30
2023-11-13T06:49:41.432Z,10.30
2023-11-13T06:52:10.197Z,10.40
2023-11-13T06:54:37.685Z,10.50
2023-11-13T06:57:06.036Z,10.50
2023-11-13T06:59:33.503Z,10.60
2023-11-13T07:02:02.643Z,10.60
2023-11-13T07:04:30.119Z,10.60
2023-11-13T07:06:57.641Z,10.60
2023-11-13T07:09:25.113Z,10.70
2023-11-13T07:11:52.803Z,10.60
2023-11-13T07:14:20.095Z,10.70
2023-11-13T07:16:47.887Z,10.80
2023-11-13T07:19:15.824Z,12.80
2023-11-13T07:21:43.397Z,10.90
2023-11-13T07:24:12.001Z,10.90
2023-11-13T07:26:40.584Z,13.80
2023-11-13T07:29:07.990Z,11.00
2023-11-13T07:31:35.368Z,11.00
2023-11-13T07:34:02.799Z,11.00
2023-11-13T07:36:31.712Z,11.10
2023-11-13T07:38:59.911Z,11.10
2023-11-13T07:41:27.468Z,11.10
2023-11-13T07:43:57.575Z,11.20
2023-11-13T07:46:25.002Z,11.50
2023-11-13T07:48:52.245Z,11.20
2023-11-13T07:51:34.421Z,11.10
2023-11-13T07:54:14.112Z,11.10
2023-11-13T07:56:41.365Z,11.10
2023-11-13T07:59:24.512Z,11.80
2023-11-13T08:01:55.144Z,11.10
2023-11-13T08:04:23.825Z,12.30
2023-11-13T08:06:53.439Z,12.90
2023-11-13T08:09:24.741Z,11.60
2023-11-13T08:11:52.195Z,11.10
2023-11-13T08:14:19.903Z,11.10
2023-11-13T08:16:47.369Z,11.10
2023-11-13T08:19:16.759Z,11.70
2023-11-13T08:21:44.926Z,12.60
2023-11-13T08:24:12.861Z,11.10
2023-11-13T08:26:41.821Z,11.10
2023-11-13T08:29:10.410Z,11.10
2023-11-13T08:31:38.342Z,11.20
2023-11-13T08:34:06.416Z,11.10
2023-11-13T08:36:33.973Z,11.10
2023-11-13T08:39:01.697Z,11.20
2023-11-13T08:41:33.961Z,11.10
2023-11-13T08:44:02.438Z,11.20
2023-11-13T08:46:29.681Z,11.20
2023-11-13T08:48:59.664Z,13.60
2023-11-13T08:51:29.022Z,11.20
2023-11-13T08:53:56.767Z,11.20
2023-11-13T08:56:24.540Z,11.20
2023-11-13T08:59:00.166Z,11.20
2023-11-13T09:01:29.689Z,11.20
2023-11-13T09:03:57.305Z,11.20
2023-11-13T09:06:24.621Z,11.20
2023-11-13T09:08:59.615Z,11.20
2023-11-13T09:11:30.898Z,11.20
2023-11-13T09:13:59.018Z,11.20
2023-11-13T09:16:26.727Z,11.20
2023-11-13T09:18:58.345Z,11.20
2023-11-13T09:21:26.474Z,11.20
2023-11-13T09:23:53.797Z,11.20
2023-11-13T09:26:21.590Z,11.20
2023-11-13T09:28:48.781Z,11.90
2023-11-13T09:31:16.184Z,11.20
2023-11-13T09:33:45.575Z,11.20
2023-11-13T09:36:14.851Z,11.20
2023-11-13T09:38:42.423Z,11.20
2023-11-13T09:41:20.104Z,11.20
2023-11-13T09:43:48.910Z,11.20
2023-11-13T09:46:17.053Z,12.70
2023-11-13T09:48:52.717Z,12.80
2023-11-13T09:51:29.433Z,11.20
2023-11-13T09:53:59.669Z,11.20
2023-11-13T09:56:29.136Z,11.20
2023-11-13T09:59:05.630Z,11.30
2023-11-13T10:01:43.769Z,11.30
2023-11-13T10:04:12.370Z,11.30
2023-11-13T10:06:41.154Z,11.30
2023-11-13T10:09:09.299Z,11.30
2023-11-13T10:11:37.658Z,11.30
2023-11-13T10:14:15.196Z,11.30
2023-11-13T10:16:43.076Z,11.30
2023-11-13T10:19:19.620Z,11.30
2023-11-13T10:21:47.400Z,11.90
2023-11-13T10:24:30.983Z,11.30
2023-11-13T10:27:13.063Z,11.30
2023-11-13T10:29:46.910Z,11.40
2023-11-13T10:32:43.143Z,11.40
2023-11-13T10:35:29.776Z,11.50
2023-11-13T10:37:59.381Z,11.50
2023-11-13T10:40:51.246Z,11.60
2023-11-13T10:43:48.807Z,11.60
2023-11-13T10:46:34.390Z,11.60
2023-11-13T10:49:09.499Z,11.60
2023-11-13T10:51:56.214Z,11.70
2023-11-13T10:54:39.140Z,11.60
2023-11-13T10:57:13.822Z,11.60
2023-11-13T10:59:58.394Z,11.70
2023-11-13T11:02:39.055Z,11.70
2023-11-13T11:05:14.217Z,11.70
2023-11-13T11:07:45.184Z,11.70
2023-11-13T11:10:15.428Z,11.70
2023-11-13T11:13:07.908Z,11.70
2023-11-13T11:15:36.224Z,11.70
2023-11-13T11:18:13.515Z,11.70
2023-11-13T11:21:08.765Z,11.70
2023-11-13T11:23:58.941Z,11.70
2023-11-13T11:26:26.113Z,11.70
2023-11-13T11:28:55.411Z,11.80
2023-11-13T11:31:48.674Z,11.80
2023-11-13T11:34:17.666Z,11.80
2023-11-13T11:36:45.859Z,11.90
2023-11-13T11:39:20.629Z,12.00
2023-11-13T11:41:53.471Z,12.10
2023-11-13T11:44:24.359Z,12.20
2023-11-13T11:47:00.195Z,12.60
2023-11-13T11:49:33.831Z,12.20
2023-11-13T11:52:10.359Z,12.30
2023-11-13T11:54:37.957Z,12.30
2023-11-13T11:57:08.831Z,12.40
2023-11-13T11:59:37.640Z,12.40
2023-11-13T12:02:05.757Z,12.50
2023-11-13T12:04:33.739Z,12.50
2023-11-13T12:07:10.911Z,12.60
2023-11-13T12:09:46.900Z,12.60
2023-11-13T12:12:15.742Z,12.60
2023-11-13T12:14:43.252Z,12.60
2023-11-13T12:17:11.928Z,15.10
2023-11-13T12:19:41.207Z,12.60
2023-11-13T12:22:22.597Z,12.60
2023-11-13T12:25:12.267Z,12.60
2023-11-13T12:27:59.270Z,12.60
2023-11-13T12:30:42.572Z,12.70
2023-11-13T12:33:30.169Z,12.70
2023-11-13T12:36:13.241Z,12.70
2023-11-13T12:38:49.892Z,12.70
2023-11-13T12:41:27.429Z,12.80
2023-11-13T12:43:58.643Z,12.70
2023-11-13T12:46:26.997Z,15.50
2023-11-13T12:48:59.720Z,12.70
2023-11-13T12:51:31.442Z,12.70
2023-11-13T12:54:01.188Z,12.70
2023-11-13T12:56:31.530Z,12.70
2023-11-13T12:59:00.346Z,12.70
2023-11-13T13:01:29.008Z,15.80
2023-11-13T13:03:57.130Z,14.90
2023-11-13T13:06:24.924Z,12.70
2023-11-13T13:08:58.822Z,12.70
2023-11-13T13:11:36.981Z,12.70
2023-11-13T13:14:14.518Z,12.70
2023-11-13T13:16:46.122Z,12.70
2023-11-13T13:19:20.320Z,12.70
2023-11-13T13:21:50.805Z,12.70
2023-11-13T13:24:20.997Z,12.70
2023-11-13T13:26:50.921Z,12.70
2023-11-13T13:29:23.396Z,12.70
2023-11-13T13:31:54.188Z,12.70
2023-11-13T13:34:25.117Z,12.70
2023-11-13T13:36:57.779Z,12.70
2023-11-13T13:39:28.467Z,12.70
2023-11-13T13:42:01.625Z,12.70
2023-11-13T13:44:31.344Z,12.60
2023-11-13T13:47:01.518Z,12.70
2023-11-13T13:49:34.206Z,12.80
2023-11-13T13:52:05.672Z,12.80
2023-11-13T13:54:34.710Z,12.80
2023-11-13T13:57:06.008Z,12.90
2023-11-13T13:59:35.997Z,12.90
2023-11-13T14:02:06.558Z,12.90
2023-11-13T14:04:35.724Z,12.90
2023-11-13T14:07:03.960Z,12.80
2023-11-13T14:09:31.283Z,12.90
2023-11-13T14:12:06.236Z,12.90
2023-11-13T14:14:36.474Z,12.90
2023-11-13T14:17:04.750Z,15.80
2023-11-13T14:19:31.917Z,12.90
2023-11-13T14:21:58.932Z,12.90
2023-11-13T14:24:28.830Z,13.70
2023-11-13T14:26:56.105Z,15.30
2023-11-13T14:29:23.199Z,13.20
2023-11-13T14:31:50.308Z,13.10
2023-11-13T14:34:19.600Z,12.90
2023-11-13T14:36:46.663Z,13.70
2023-11-13T14:39:15.482Z,13.50
2023-11-13T14:41:46.915Z,12.90
2023-11-13T14:44:15.041Z,12.90
2023-11-13T14:46:43.625Z,12.90
2023-11-13T14:49:14.112Z,12.90
2023-11-13T14:51:44.523Z,12.90
2023-11-13T14:54:14.881Z,13.00
2023-11-13T14:56:42.701Z,13.00
2023-11-13T14:59:11.901Z,13.20
2023-11-13T15:01:39.138Z,13.30
2023-11-13T15:04:07.026Z,13.30
2023-11-13T15:06:34.405Z,13.40
2023-11-13T15:09:01.698Z,15.30
2023-11-13T15:11:28.755Z,13.50
2023-11-13T15:13:56.005Z,13.50
2023-11-13T15:16:23.309Z,16.30
2023-11-13T15:18:52.623Z,15.30
2023-11-13T15:21:19.933Z,15.00
2023-11-13T15:23:47.564Z,13.60
2023-11-13T15:26:15.603Z,13.70
2023-11-13T15:28:42.831Z,13.70
2023-11-13T15:31:10.436Z,13.70
2023-11-13T15:33:37.627Z,13.60
2023-11-13T15:36:06.265Z,15.10
2023-11-13T15:38:33.510Z,13.60
2023-11-13T15:41:01.138Z,13.70
2023-11-13T15:43:28.324Z,13.70
2023-11-13T15:46:06.392Z,13.90
2023-11-13T15:48:34.067Z,13.90
2023-11-13T15:51:02.449Z,14.00
2023-11-13T15:53:31.271Z,14.20
2023-11-13T15:55:59.641Z,14.40
2023-11-13T15:58:27.371Z,14.50
2023-11-13T16:00:54.959Z,14.60
2023-11-13T16:03:30.935Z,14.70
2023-11-13T16:06:04.675Z,14.70
2023-11-13T16:08:32.246Z,17.20
2023-11-13T16:10:59.768Z,14.80
2023-11-13T16:13:31.795Z,14.80
2023-11-13T16:15:59.791Z,14.80
2023-11-13T16:18:27.293Z,14.80
2023-11-13T16:20:54.857Z,14.70
2023-11-13T16:23:22.424Z,16.00
2023-11-13T16:25:55.533Z,14.70
2023-11-13T16:28:24.314Z,14.80
2023-11-13T16:30:52.646Z,14.80
2023-11-13T16:33:20.294Z,14.80
2023-11-13T16:35:47.821Z,14.70
2023-11-13T16:38:17.310Z,14.70
2023-11-13T16:40:45.243Z,14.70
2023-11-13T16:43:12.791Z,14.70
2023-11-13T16:45:40.414Z,14.70
2023-11-13T16:48:08.223Z,14.70
2023-11-13T16:50:36.291Z,14.70
2023-11-13T16:53:04.609Z,14.80
2023-11-13T16:55:33.257Z,14.80
2023-11-13T16:58:06.000Z,14.70
2023-11-13T17:00:34.262Z,14.70
2023-11-13T17:03:01.466Z,15.50
2023-11-13T17:05:29.009Z,14.60
2023-11-13T17:07:56.158Z,14.50
2023-11-13T17:10:28.888Z,14.50
2023-11-13T17:12:56.830Z,14.50
2023-11-13T17:15:24.059Z,14.40
2023-11-13T17:17:51.228Z,15.20
2023-11-13T17:20:20.030Z,14.40
2023-11-13T17:22:48.772Z,15.70
2023-11-13T17:25:15.847Z,14.40
2023-11-13T17:27:43.093Z,14.50
2023-11-13T17:30:12.141Z,14.50
2023-11-13T17:32:40.121Z,14.50
2023-11-13T17:35:10.918Z,14.50
2023-11-13T17:37:38.176Z,14.50
2023-11-13T17:40:09.483Z,14.50
2023-11-13T17:42:37.384Z,14.50
2023-11-13T17:45:05.932Z,17.10
2023-11-13T17:47:33.154Z,14.50
2023-11-13T17:50:04.290Z,14.50
2023-11-13T17:52:32.231Z,14.50
2023-11-13T17:55:01.633Z,14.50
2023-11-13T17:57:28.735Z,14.50
2023-11-13T17:59:55.719Z,15.40
2023-11-13T18:02:24.368Z,14.50
2023-11-13T18:04:52.124Z,14.50
2023-11-13T18:07:20.519Z,14.50
2023-11-13T18:09:48.269Z,14.50
2023-11-13T18:12:19.383Z,14.50
2023-11-13T18:14:51.446Z,14.50
2023-11-13T18:17:20.421Z,14.50
2023-11-13T18:19:49.245Z,14.50
2023-11-13T18:22:26.760Z,14.60
2023-11-13T18:24:54.651Z,14.60
2023-11-13T18:27:23.557Z,14.60
2023-11-13T18:29:51.879Z,14.60
2023-11-13T18:32:19.166Z,14.60
2023-11-13T18:34:49.458Z,14.60
2023-11-13T18:37:17.620Z,14.60
2023-11-13T18:39:46.727Z,14.60
2023-11-13T18:42:17.627Z,14.60
2023-11-13T18:44:47.178Z,14.60
2023-11-13T18:47:14.825Z,14.70
2023-11-13T18:49:43.395Z,14.70
2023-11-13T18:52:11.197Z,15.40
2023-11-13T18:54:38.306Z,14.70
2023-11-13T18:57:05.432Z,14.70
2023-11-13T18:59:32.527Z,14.70
2023-11-13T19:01:59.810Z,14.80
2023-11-13T19:04:28.222Z,14.80
2023-11-13T19:06:55.316Z,14.80
2023-11-13T19:09:23.028Z,16.70
2023-11-13T19:11:50.751Z,16.20
2023-11-13T19:14:17.936Z,14.90
2023-11-13T19:16:45.248Z,14.90
2023-11-13T19:19:13.379Z,14.90
2023-11-13T19:21:40.578Z,16.10
2023-11-13T19:24:10.027Z,15.00
2023-11-13T19:26:38.463Z,15.00
2023-11-13T19:29:05.750Z,15.10
2023-11-13T19:31:32.876Z,15.00
2023-11-13T19:34:00.171Z,15.00
2023-11-13T19:36:27.263Z,14.90
2023-11-13T19:38:56.220Z,14.90
2023-11-13T19:41:26.675Z,15.40
2023-11-13T19:43:53.881Z,14.80
2023-11-13T19:46:21.031Z,14.90
2023-11-13T19:48:48.201Z,15.00
2023-11-13T19:51:16.069Z,17.80
2023-11-13T19:53:44.084Z,16.10
2023-11-13T19:56:11.182Z,14.90
2023-11-13T19:58:38.252Z,16.80
2023-11-13T20:01:06.355Z,17.70
2023-11-13T20:03:33.822Z,15.10
2023-11-13T20:06:01.084Z,15.10
2023-11-13T20:08:28.094Z,17.60
2023-11-13T20:10:55.686Z,15.20
2023-11-13T20:13:22.731Z,15.20
2023-11-13T20:15:50.299Z,15.20
2023-11-13T20:18:29.558Z,15.20
2023-11-13T20:21:04.098Z,15.20
2023-11-13T20:23:31.254Z,17.00
2023-11-13T20:25:59.706Z,15.80
2023-11-13T20:28:27.150Z,15.80
2023-11-13T20:30:54.465Z,15.30
2023-11-13T20:33:23.311Z,15.30
2023-11-13T20:35:51.403Z,15.40
2023-11-13T20:38:18.359Z,15.40
2023-11-13T20:40:45.702Z,15.40
2023-11-13T20:43:12.757Z,15.50
2023-11-13T20:45:39.705Z,15.50
2023-11-13T20:48:07.750Z,14.10
2023-11-13T20:50:34.878Z,18.20
2023-11-13T20:53:01.897Z,15.50
2023-11-13T20:55:28.847Z,15.50
2023-11-13T20:57:55.868Z,15.60
2023-11-13T21:00:23.817Z,15.40
2023-11-13T21:02:55.261Z,15.40
2023-11-13T21:05:26.351Z,16.80
2023-11-13T21:07:55.270Z,15.40
2023-11-13T21:10:26.049Z,16.20
2023-11-13T21:12:56.703Z,15.40
2023-11-13T21:15:23.705Z,15.40
2023-11-13T21:17:50.646Z,16.70
2023-11-13T21:20:17.659Z,16.60
2023-11-13T21:22:46.042Z,15.40
2023-11-13T21:25:16.649Z,15.40
2023-11-13T21:27:45.087Z,15.30
2023-11-13T21:30:12.531Z,15.40
2023-11-13T21:32:39.813Z,15.40
2023-11-13T21:35:08.373Z,17.60
2023-11-13T21:37:35.572Z,15.40
2023-11-13T21:40:04.032Z,15.50
2023-11-13T21:42:31.090Z,15.50
2023-11-13T21:44:58.123Z,15.60
2023-11-13T21:47:26.990Z,15.60
2023-11-13T21:49:54.115Z,18.00
2023-11-13T21:52:24.570Z,15.60
2023-11-13T21:54:51.847Z,15.60
2023-11-13T21:57:18.921Z,15.60
2023-11-13T21:59:47.128Z,15.60
2023-11-13T22:02:19.052Z,15.70
2023-11-13T22:04:46.704Z,15.60
2023-11-13T22:07:13.798Z,15.60
2023-11-13T22:09:40.725Z,15.60
2023-11-13T22:12:09.344Z,15.60
2023-11-13T22:14:36.420Z,15.70
2023-11-13T22:17:06.930Z,15.60
2023-11-13T22:19:35.414Z,15.60
2023-11-13T22:22:02.449Z,15.60
2023-11-13T22:24:29.549Z,15.60
2023-11-13T22:26:56.581Z,15.50
2023-11-13T22:29:25.822Z,16.70
2023-11-13T22:31:52.802Z,15.70
2023-11-13T22:34:19.817Z,15.50
2023-11-13T22:36:46.916Z,15.60
2023-11-13T22:39:14.111Z,17.10
2023-11-13T22:41:41.103Z,15.60
2023-11-13T22:44:08.995Z,15.60
2023-11-13T22:46:36.203Z,15.60
2023-11-13T22:49:04.144Z,15.50
2023-11-13T22:51:31.137Z,14.60
2023-11-13T22:53:58.554Z,15.40
2023-11-13T22:56:26.469Z,15.40
2023-11-13T22:58:53.759Z,15.30
2023-11-13T23:01:21.205Z,17.30
2023-11-13T23:03:49.935Z,17.80
2023-11-13T23:06:17.398Z,15.10
2023-11-13T23:08:44.729Z,15.00
2023-11-13T23:11:11.789Z,15.00
2023-11-13T23:13:38.795Z,14.90
2023-11-13T23:16:06.298Z,14.90
2023-11-13T23:18:33.264Z,14.90
2023-11-13T23:21:00.348Z,14.90
2023-11-13T23:23:27.302Z,14.90
2023-11-13T23:25:55.094Z,14.80
2023-11-13T23:28:23.844Z,14.90
2023-11-13T23:30:53.969Z,15.10
2023-11-13T23:33:21.276Z,14.80
2023-11-13T23:35:48.408Z,14.80
2023-11-13T23:38:15.999Z,14.80
2023-11-13T23:40:42.965Z,15.70
2023-11-13T23:43:10.204Z,15.40
2023-11-13T23:45:37.246Z,14.90
2023-11-13T23:48:04.649Z,14.90
2023-11-13T23:50:31.636Z,14.80
2023-11-13T23:52:58.638Z,16.80
2023-11-13T23:55:25.655Z,14.80
2023-11-13T23:57:54.372Z,16.80
